Time;durP1;ratioP1;P1;durP2;ratioP2;P2;SDS_P1;SDS_P2;PMS_P1;PMS_P2;Temp;Humidity;BMP_temperature;BMP_pressure;BME280_temperature;BME280_humidity;BME280_pressure;Samples;Min_cycle;Max_cycle;Signal;HPM_P1;HPM_P2
2022/06/02 00:01:29;;;;;;;4.75;2.30;;;14.00;76.10;;;;;;5015803;28;20033;-80
2022/06/02 00:04:33;;;;;;;6.40;2.97;;;13.80;76.20;;;;;;5016088;28;20025;-80
2022/06/02 00:06:58;;;;;;;3.63;2.80;;;13.80;76.80;;;;;;5015864;28;20387;-81
2022/06/02 00:09:59;;;;;;;4.65;2.75;;;13.70;77.10;;;;;;5015612;28;20026;-80
2022/06/02 00:12:41;;;;;;;4.80;2.38;;;13.70;76.90;;;;;;5015875;28;20029;-79
2022/06/02 00:15:23;;;;;;;10.20;2.85;;;13.60;76.80;;;;;;5015595;28;20087;-78
2022/06/02 00:17:59;;;;;;;6.10;2.55;;;13.70;77.00;;;;;;5015462;28;20025;-79
2022/06/02 00:20:31;;;;;;;4.07;2.35;;;13.70;76.70;;;;;;5015573;28;20062;-80
2022/06/02 00:23:38;;;;;;;5.47;2.60;;;13.60;76.90;;;;;;5015614;28;20033;-80
2022/06/02 00:26:51;;;;;;;4.03;2.90;;;13.60;76.80;;;;;;5015363;28;20022;-79
2022/06/02 00:29:42;;;;;;;4.47;2.45;;;13.60;76.60;;;;;;4935803;29;20032;-80
2022/06/02 00:32:23;;;;;;;2.53;2.33;;;13.50;76.80;;;;;;4935908;29;20028;-81
2022/06/02 00:35:14;;;;;;;3.00;2.42;;;13.50;77.10;;;;;;5000301;28;20506;-81
2022/06/02 00:38:00;;;;;;;3.15;2.13;;;13.50;77.40;;;;;;5015227;28;20037;-80
2022/06/02 00:40:27;;;;;;;4.45;2.30;;;13.40;77.20;;;;;;5014181;28;20026;-80
2022/06/02 00:43:13;;;;;;;2.65;2.17;;;13.40;77.20;;;;;;5015235;28;20022;-79
2022/06/02 00:45:43;;;;;;;3.92;2.22;;;13.50;77.10;;;;;;5016565;28;20037;-79
2022/06/02 00:48:53;;;;;;;4.07;2.60;;;13.50;77.10;;;;;;5016607;28;20030;-80
2022/06/02 00:51:29;;;;;;;3.00;2.70;;;13.40;76.90;;;;;;5016547;28;20022;-80
2022/06/02 00:57:39;;;;;;;4.63;2.40;;;13.30;77.10;;;;;;5015474;28;20128;-80
2022/06/02 01:00:13;;;;;;;4.15;2.60;;;13.30;76.90;;;;;;5013924;28;20030;-80
2022/06/02 01:02:55;;;;;;;4.63;2.88;;;13.30;76.80;;;;;;5014848;28;20033;-81
2022/06/02 01:05:48;;;;;;;2.97;2.10;;;13.30;76.80;;;;;;5014903;28;20022;-81
2022/06/02 01:08:34;;;;;;;3.72;2.00;;;13.30;76.60;;;;;;5014828;28;20108;-80
2022/06/02 01:11:18;;;;;;;5.30;2.60;;;13.30;76.60;;;;;;5014663;28;20026;-81
2022/06/02 01:14:07;;;;;;;3.47;2.47;;;13.20;76.60;;;;;;5014614;28;20049;-80
2022/06/02 01:16:55;;;;;;;3.58;2.45;;;13.20;76.50;;;;;;5014629;28;20038;-80
2022/06/02 01:19:47;;;;;;;3.00;2.40;;;13.10;77.00;;;;;;5014514;28;20018;-80
2022/06/02 01:22:34;;;;;;;4.10;2.60;;;13.10;77.20;;;;;;5014598;28;20034;-80
2022/06/02 01:25:37;;;;;;;2.35;2.00;;;13.00;77.40;;;;;;5014237;28;20022;-81
2022/06/02 01:28:37;;;;;;;3.08;2.42;;;13.00;77.30;;;;;;5014580;28;20025;-81
2022/06/02 01:31:25;;;;;;;3.53;2.58;;;13.10;77.10;;;;;;4947469;28;20030;-81
2022/06/02 01:33:56;;;;;;;4.22;2.20;;;13.00;77.40;;;;;;5014206;28;20029;-81
2022/06/02 01:36:31;;;;;;;4.40;2.40;;;13.00;77.50;;;;;;5014268;28;20030;-81
2022/06/02 01:39:21;;;;;;;2.88;2.28;;;13.00;77.40;;;;;;5014207;28;20054;-80
2022/06/02 01:42:15;;;;;;;5.32;2.47;;;13.00;77.10;;;;;;5014363;28;20030;-80
2022/06/02 01:44:56;;;;;;;3.83;2.40;;;12.90;77.10;;;;;;5012823;28;20400;-81
2022/06/02 01:47:40;;;;;;;4.63;3.15;;;12.90;77.30;;;;;;5014238;28;20530;-81
2022/06/02 01:50:13;;;;;;;3.20;2.15;;;12.90;77.40;;;;;;5014117;28;20096;-80
2022/06/02 01:53:13;;;;;;;4.18;2.53;;;12.80;77.50;;;;;;5012831;28;20129;-80
2022/06/02 01:55:41;;;;;;;3.70;2.33;;;12.80;77.20;;;;;;5012605;28;20041;-80
2022/06/02 01:58:34;;;;;;;4.13;2.50;;;12.80;77.60;;;;;;5013865;28;20026;-80
2022/06/02 02:01:11;;;;;;;3.38;2.38;;;12.80;77.50;;;;;;5013801;28;20099;-80
2022/06/02 02:03:44;;;;;;;5.07;2.35;;;12.80;77.40;;;;;;5013832;28;20029;-79
2022/06/02 02:06:36;;;;;;;3.53;2.58;;;12.70;77.70;;;;;;5013530;28;20038;-81
2022/06/02 02:09:06;;;;;;;3.40;2.40;;;12.70;77.70;;;;;;5013780;28;20022;-80
2022/06/02 02:11:41;;;;;;;4.00;2.47;;;12.80;77.60;;;;;;5013765;28;20050;-80
2022/06/02 02:14:22;;;;;;;5.10;2.50;;;12.80;77.40;;;;;;5013819;28;20411;-80
2022/06/02 02:17:12;;;;;;;3.33;2.70;;;12.90;77.20;;;;;;5013717;28;20466;-80
2022/06/02 02:19:55;;;;;;;4.07;2.90;;;12.90;76.90;;;;;;5012356;28;20022;-80
2022/06/02 02:22:35;;;;;;;6.15;3.90;;;12.90;76.60;;;;;;5012298;28;20029;-80
2022/06/02 02:25:01;;;;;;;3.92;3.25;;;12.90;76.50;;;;;;5012191;28;20392;-79
2022/06/02 02:28:04;;;;;;;5.20;3.28;;;12.80;76.70;;;;;;5013706;28;20080;-80
2022/06/02 02:30:44;;;;;;;3.50;3.08;;;12.80;77.00;;;;;;5012098;28;20026;-80
2022/06/02 02:33:34;;;;;;;6.53;3.97;;;12.80;77.00;;;;;;5013487;28;20526;-80
2022/06/02 02:36:11;;;;;;;4.97;3.88;;;12.70;77.40;;;;;;5013318;28;20064;-80
2022/06/02 02:38:41;;;;;;;6.18;4.05;;;12.70;77.30;;;;;;5012021;28;20140;-80
2022/06/02 02:41:13;;;;;;;8.90;4.80;;;12.70;77.40;;;;;;5013597;28;20049;-81
2022/06/02 02:43:51;;;;;;;7.57;5.07;;;12.70;77.40;;;;;;5013658;28;20026;-81
2022/06/02 02:46:25;;;;;;;7.63;4.63;;;12.70;77.50;;;;;;5013140;28;20105;-81
2022/06/02 02:49:08;;;;;;;8.10;4.53;;;12.60;77.50;;;;;;5012338;28;20479;-81
2022/06/02 02:51:55;;;;;;;5.63;3.67;;;12.60;77.70;;;;;;5011898;28;20593;-80
2022/06/02 02:54:46;;;;;;;4.97;3.85;;;12.60;77.60;;;;;;5011851;28;20030;-80
2022/06/02 02:57:15;;;;;;;6.38;3.50;;;12.60;77.70;;;;;;5013046;28;20057;-81
2022/06/02 02:59:45;;;;;;;5.32;3.47;;;12.60;77.60;;;;;;5013053;28;20386;-80
2022/06/02 03:02:28;;;;;;;6.75;4.10;;;12.60;77.60;;;;;;5011834;28;20387;-81
2022/06/02 03:05:13;;;;;;;7.07;5.03;;;12.60;77.50;;;;;;5013211;28;20022;-81
2022/06/02 03:07:38;;;;;;;6.43;4.85;;;12.60;77.40;;;;;;5012087;28;20104;-81
2022/06/02 03:10:07;;;;;;;6.30;4.85;;;12.60;77.50;;;;;;5013124;28;20061;-80
2022/06/02 03:12:34;;;;;;;5.43;4.07;;;12.60;77.40;;;;;;5013104;28;20029;-80
2022/06/02 03:15:12;;;;;;;5.65;3.63;;;12.60;77.30;;;;;;5011636;28;20502;-80
2022/06/02 03:17:57;;;;;;;5.10;3.55;;;12.60;77.10;;;;;;5013110;28;20029;-80
2022/06/02 03:20:47;;;;;;;4.25;3.53;;;12.60;77.00;;;;;;5016061;28;20024;-80
2022/06/02 03:23:22;;;;;;;4.78;2.30;;;12.60;77.20;;;;;;5016728;28;20455;-80
2022/06/02 03:26:00;;;;;;;4.30;2.80;;;12.60;77.10;;;;;;5017018;28;20348;-80
2022/06/02 03:28:47;;;;;;;3.83;2.65;;;12.50;77.30;;;;;;5016726;28;20356;-80
2022/06/02 03:31:15;;;;;;;3.20;2.88;;;12.30;77.60;;;;;;5015394;28;20026;-81
2022/06/02 03:33:44;;;;;;;6.65;2.75;;;12.30;77.80;;;;;;5016521;28;20022;-80
2022/06/02 03:36:21;;;;;;;3.80;2.38;;;12.30;77.90;;;;;;5015056;28;20034;-80
2022/06/02 03:38:50;;;;;;;4.88;3.03;;;12.30;78.20;;;;;;5016495;28;20055;-80
2022/06/02 03:41:22;;;;;;;4.25;2.50;;;12.30;78.10;;;;;;5016313;28;20022;-80
2022/06/02 03:44:14;;;;;;;3.88;2.50;;;12.30;78.00;;;;;;5016178;28;20041;-80
2022/06/02 03:46:51;;;;;;;3.35;2.75;;;12.30;77.80;;;;;;5016363;28;20033;-80
2022/06/02 03:49:47;;;;;;;3.65;2.70;;;12.40;77.70;;;;;;5016295;28;20459;-80
2022/06/02 03:52:24;;;;;;;6.40;3.50;;;12.40;77.60;;;;;;5015714;28;20080;-80
2022/06/02 03:55:08;;;;;;;5.40;2.92;;;12.30;77.60;;;;;;5015253;28;20029;-81
2022/06/02 03:57:55;;;;;;;7.90;3.72;;;12.30;77.60;;;;;;5015992;28;20026;-80
2022/06/02 04:00:31;;;;;;;5.55;4.18;;;12.30;77.50;;;;;;5016088;28;20025;-80
2022/06/02 04:03:05;;;;;;;10.85;7.10;;;12.40;77.50;;;;;;5015987;28;20026;-80
2022/06/02 04:05:49;;;;;;;14.00;9.93;;;12.40;77.40;;;;;;5015624;28;20537;-80
2022/06/02 04:08:41;;;;;;;16.70;10.73;;;12.30;77.30;;;;;;5014573;28;20394;-80
2022/06/02 04:13:37;;;;;;;11.50;7.90;;;12.40;76.90;;;;;;5015901;28;20034;-80
2022/06/02 04:14:36;;;;;;;10.57;6.28;;;12.30;76.90;;;;;;5015616;28;20038;-81
2022/06/02 04:17:33;;;;;;;6.03;4.53;;;12.20;77.40;;;;;;5015768;28;20030;-80
2022/06/02 04:20:34;;;;;;;8.10;4.35;;;12.20;77.20;;;;;;4971871;28;20788;-80
2022/06/02 04:23:34;;;;;;;7.82;4.63;;;12.30;77.10;;;;;;5014273;28;20471;-79
2022/06/02 04:26:21;;;;;;;10.45;4.63;;;12.40;76.70;;;;;;5028692;28;20022;-79
2022/06/02 04:28:57;;;;;;;3.53;3.17;;;12.50;76.40;;;;;;5030446;28;20100;-80
2022/06/02 04:31:51;;;;;;;6.45;3.05;;;12.50;76.10;;;;;;5015654;28;20045;-80
2022/06/02 04:34:49;;;;;;;3.50;2.72;;;12.50;76.20;;;;;;5017937;28;20092;-81
2022/06/02 04:37:32;;;;;;;3.40;2.55;;;12.60;76.20;;;;;;5016806;28;20042;-80
2022/06/02 04:40:37;;;;;;;3.65;2.40;;;12.70;75.90;;;;;;5022903;28;20093;-80
2022/06/02 04:43:27;;;;;;;3.75;2.10;;;12.80;75.20;;;;;;5022319;28;20025;-79
2022/06/02 04:46:14;;;;;;;3.50;2.22;;;12.90;74.90;;;;;;5023295;28;20050;-79
2022/06/02 04:49:00;;;;;;;4.30;2.30;;;13.00;74.40;;;;;;5015164;28;20026;-81
2022/06/02 04:51:46;;;;;;;3.25;2.10;;;13.20;74.00;;;;;;5015015;28;20030;-78
2022/06/02 04:54:57;;;;;;;2.72;2.15;;;13.30;73.20;;;;;;5015120;28;20026;-81
2022/06/02 04:58:00;;;;;;;4.05;2.30;;;13.30;73.10;;;;;;5010497;28;20034;-81
2022/06/02 05:00:51;;;;;;;3.35;2.20;;;13.40;72.40;;;;;;5014949;28;20093;-80
2022/06/02 05:03:23;;;;;;;3.47;2.08;;;13.40;72.00;;;;;;5014890;28;20029;-80
2022/06/02 05:06:02;;;;;;;6.03;2.25;;;13.60;71.90;;;;;;5014693;28;20018;-81
2022/06/02 05:08:46;;;;;;;2.85;2.17;;;13.60;71.50;;;;;;5014287;28;20030;-81
2022/06/02 05:11:48;;;;;;;3.00;2.03;;;13.70;71.50;;;;;;5014393;28;20026;-78
2022/06/02 05:14:36;;;;;;;3.15;1.95;;;13.80;71.20;;;;;;5013810;28;20436;-82
2022/06/02 05:17:19;;;;;;;2.05;1.85;;;14.00;71.00;;;;;;5014535;28;20030;-81
2022/06/02 05:20:26;;;;;;;4.28;2.17;;;14.10;70.40;;;;;;5014558;28;20021;-82
2022/06/02 05:23:10;;;;;;;;;;;14.20;69.50;;;;;;5014825;28;20041;-82
2022/06/02 05:26:18;;;;;;;3.97;2.25;;;14.40;68.90;;;;;;5014299;28;19913;-82
2022/06/02 05:29:31;;;;;;;3.17;1.92;;;14.60;68.00;;;;;;5014370;28;20072;-81
2022/06/02 05:32:12;;;;;;;5.53;2.03;;;14.70;67.10;;;;;;5007019;28;20038;-81
2022/06/02 05:34:40;;;;;;;2.58;1.88;;;14.80;65.80;;;;;;5014220;28;20497;-80
2022/06/02 05:37:27;;;;;;;3.25;1.73;;;14.70;65.10;;;;;;5013999;28;20137;-79
2022/06/02 05:40:02;;;;;;;2.75;2.17;;;14.70;65.80;;;;;;4999231;28;20038;-79
2022/06/02 05:42:48;;;;;;;5.88;2.35;;;14.80;65.60;;;;;;5011981;28;20057;-80
2022/06/02 05:45:41;;;;;;;4.55;2.83;;;14.80;65.00;;;;;;5013760;28;20018;-79
2022/06/02 05:48:18;;;;;;;2.95;2.22;;;14.70;64.40;;;;;;5013646;28;20030;-79
2022/06/02 05:50:56;;;;;;;5.90;2.60;;;14.70;64.70;;;;;;5013781;28;20104;-80
2022/06/02 05:53:30;;;;;;;6.05;2.80;;;14.70;64.60;;;;;;5013691;28;20054;-81
2022/06/02 05:56:14;;;;;;;3.45;2.33;;;14.70;64.70;;;;;;5013702;28;20034;-82
2022/06/02 05:58:50;;;;;;;5.38;2.53;;;14.90;64.60;;;;;;5013560;28;20021;-80
2022/06/02 06:01:43;;;;;;;4.93;2.53;;;15.00;64.20;;;;;;5012485;28;20022;-80
2022/06/02 06:04:25;;;;;;;2.63;2.33;;;15.20;63.30;;;;;;5012224;28;20026;-80
2022/06/02 06:07:01;;;;;;;4.63;2.47;;;15.30;62.20;;;;;;5012241;28;20025;-82
2022/06/02 06:09:52;;;;;;;3.88;2.65;;;15.40;62.00;;;;;;5013259;28;20072;-79
2022/06/02 06:12:31;;;;;;;2.10;1.90;;;15.70;60.80;;;;;;5008014;28;20049;-79
2022/06/02 06:15:38;;;;;;;3.58;2.13;;;15.80;60.10;;;;;;5013387;28;20073;-75
2022/06/02 06:18:18;;;;;;;4.18;2.20;;;15.80;59.60;;;;;;5013109;28;20045;-76
2022/06/02 06:20:57;;;;;;;3.22;2.10;;;16.00;58.80;;;;;;5013038;28;20479;-73
2022/06/02 06:23:35;;;;;;;21.27;3.58;;;16.00;59.10;;;;;;5012994;28;20037;-72
2022/06/02 06:26:34;;;;;;;7.68;1.92;;;16.20;68.40;;;;;;5013121;28;20027;-70
2022/06/02 06:29:30;;;;;;;9.45;2.05;;;16.50;61.80;;;;;;5013007;28;20036;-71
2022/06/02 06:32:16;;;;;;;6.93;2.22;;;16.90;62.70;;;;;;5013197;28;20356;-70
2022/06/02 06:34:42;;;;;;;4.38;2.10;;;17.10;58.60;;;;;;5012868;28;20041;-71
2022/06/02 06:37:34;;;;;;;6.57;2.13;;;17.30;57.50;;;;;;5012718;28;20037;-71
2022/06/02 06:40:25;;;;;;;6.75;2.30;;;17.50;58.60;;;;;;5013116;28;20065;-73
2022/06/02 06:43:03;;;;;;;8.80;3.20;;;17.70;57.80;;;;;;5013020;28;20041;-70
2022/06/02 06:45:53;;;;;;;9.90;2.70;;;17.80;57.20;;;;;;5013082;28;20050;-73
2022/06/02 06:48:24;;;;;;;5.75;2.05;;;18.00;55.60;;;;;;5012826;28;20022;-70
2022/06/02 06:51:03;;;;;;;7.57;2.33;;;18.20;54.50;;;;;;5013064;28;20022;-70
2022/06/02 06:53:39;;;;;;;4.85;1.80;;;18.40;54.20;;;;;;5014800;28;20050;-70
2022/06/02 06:56:24;;;;;;;4.95;1.70;;;18.50;53.40;;;;;;5018100;28;20030;-71
2022/06/02 06:59:18;;;;;;;3.05;1.67;;;18.70;53.60;;;;;;5016640;28;20026;-70
2022/06/02 07:02:16;;;;;;;6.68;1.90;;;18.90;52.00;;;;;;5016518;28;20038;-71
2022/06/02 07:05:01;;;;;;;3.85;1.90;;;18.90;50.70;;;;;;5015259;28;20116;-70
2022/06/02 07:07:35;;;;;;;4.88;2.00;;;18.40;52.90;;;;;;5016404;28;20068;-71
2022/06/02 07:10:13;;;;;;;4.82;2.10;;;18.40;52.70;;;;;;5016751;28;20352;-70
2022/06/02 07:13:03;;;;;;;7.90;2.30;;;18.40;51.60;;;;;;5014993;28;20032;-71
2022/06/02 07:15:39;;;;;;;4.50;2.38;;;18.30;53.00;;;;;;5016346;28;20065;-70
2022/06/02 07:18:14;;;;;;;4.72;2.40;;;18.30;52.40;;;;;;5016669;28;20387;-70
2022/06/02 07:21:27;;;;;;;4.45;2.05;;;18.00;52.80;;;;;;5016711;28;20044;-71
2022/06/02 07:24:30;;;;;;;4.47;1.70;;;18.10;53.20;;;;;;4975291;28;20031;-72
2022/06/02 07:27:10;;;;;;;4.60;1.98;;;17.80;53.20;;;;;;5016378;28;20375;-71
2022/06/02 07:30:07;;;;;;;3.80;2.00;;;17.80;54.10;;;;;;5016167;28;20427;-71
2022/06/02 07:33:14;;;;;;;2.47;1.75;;;17.80;54.30;;;;;;5015660;28;20485;-71
2022/06/02 07:35:40;;;;;;;2.55;2.08;;;18.00;53.80;;;;;;5014934;28;20034;-71
2022/06/02 07:38:36;;;;;;;3.03;2.15;;;18.20;53.40;;;;;;5015762;28;20042;-71
2022/06/02 07:41:38;;;;;;;6.18;2.10;;;18.50;52.60;;;;;;5015992;28;20105;-70
2022/06/02 07:44:47;;;;;;;3.95;1.50;;;18.40;50.40;;;;;;5016216;28;20030;-71
2022/06/02 07:47:41;;;;;;;4.97;2.20;;;18.20;52.40;;;;;;5016008;28;20022;-71
2022/06/02 07:50:19;;;;;;;5.03;1.75;;;17.60;53.40;;;;;;5016065;28;20494;-71
2022/06/02 07:53:06;;;;;;;2.58;1.40;;;17.50;55.20;;;;;;5015689;28;20030;-70
2022/06/02 07:55:50;;;;;;;4.18;1.65;;;17.80;54.20;;;;;;5015512;28;20034;-72
2022/06/02 07:58:38;;;;;;;2.22;1.40;;;18.00;54.10;;;;;;5015656;28;20069;-72
2022/06/02 08:01:11;;;;;;;3.40;1.52;;;18.30;52.60;;;;;;5015456;28;20026;-72
2022/06/02 08:03:40;;;;;;;4.20;1.80;;;18.50;50.80;;;;;;5014060;28;20425;-72
2022/06/02 08:06:27;;;;;;;4.00;1.90;;;18.60;49.60;;;;;;5014403;28;20104;-72
2022/06/02 08:09:18;;;;;;;2.28;1.40;;;18.40;51.80;;;;;;5015532;28;20040;-73
2022/06/02 08:11:43;;;;;;;4.40;1.50;;;18.60;51.70;;;;;;5015349;28;20152;-73
2022/06/02 08:14:33;;;;;;;2.10;1.33;;;18.90;50.80;;;;;;5015147;28;20033;-73
2022/06/02 08:17:07;;;;;;;5.28;1.77;;;19.20;49.30;;;;;;5014814;28;20137;-72
2022/06/02 08:20:02;;;;;;;6.53;1.50;;;19.40;48.60;;;;;;5015364;28;20026;-71
2022/06/02 08:22:42;;;;;;;2.90;1.77;;;19.40;48.60;;;;;;4989628;28;20048;-72
2022/06/02 08:25:21;;;;;;;4.53;1.98;;;19.30;47.60;;;;;;5015155;28;20022;-72
2022/06/02 08:27:59;;;;;;;4.13;1.77;;;18.80;50.30;;;;;;5015089;28;20478;-72
2022/06/02 08:30:44;;;;;;;4.57;2.17;;;18.80;49.90;;;;;;5015275;28;20018;-72
2022/06/02 08:33:59;;;;;;;2.13;1.40;;;19.00;50.10;;;;;;5014533;28;20080;-72
2022/06/02 08:36:33;;;;;;;6.20;1.70;;;19.10;49.60;;;;;;4934050;29;20028;-72
2022/06/02 08:38:58;;;;;;;1.80;1.13;;;19.30;49.70;;;;;;4936710;29;20096;-71
2022/06/02 08:41:46;;;;;;;6.18;1.75;;;19.60;48.90;;;;;;4982285;28;20092;-72
2022/06/02 08:44:42;;;;;;;6.60;2.25;;;19.60;47.50;;;;;;5014737;28;20036;-71
2022/06/02 08:47:44;;;;;;;2.40;1.60;;;19.60;48.60;;;;;;5014864;28;20096;-69
2022/06/02 08:50:16;;;;;;;5.18;1.80;;;19.70;47.80;;;;;;5014526;28;20032;-70
2022/06/02 08:53:03;;;;;;;3.35;0.98;;;19.80;47.30;;;;;;5014523;28;20112;-71
2022/06/02 08:55:47;;;;;;;2.08;1.42;;;19.90;47.10;;;;;;5014367;28;20087;-70
2022/06/02 08:58:50;;;;;;;3.78;1.25;;;20.00;46.80;;;;;;5014684;28;20025;-70
2022/06/02 09:01:53;;;;;;;6.22;1.70;;;20.10;46.70;;;;;;5014526;28;20022;-70
2022/06/02 09:04:52;;;;;;;4.25;1.80;;;20.20;46.10;;;;;;5014616;28;20030;-70
2022/06/02 09:07:39;;;;;;;3.00;1.60;;;20.00;45.70;;;;;;5014219;28;20037;-69
2022/06/02 09:10:38;;;;;;;3.55;1.42;;;20.00;45.60;;;;;;5029952;28;20033;-70
2022/06/02 09:13:34;;;;;;;2.33;1.00;;;20.10;46.30;;;;;;5014645;28;20083;-70
2022/06/02 09:16:21;;;;;;;2.00;0.95;;;20.40;47.00;;;;;;5014629;28;20038;-75
2022/06/02 09:19:14;;;;;;;4.95;1.80;;;20.80;45.50;;;;;;5029143;28;20026;-74
2022/06/02 09:22:10;;;;;;;2.42;1.38;;;21.10;44.60;;;;;;5014265;28;20053;-74
2022/06/02 09:24:57;;;;;;;2.30;1.33;;;21.30;44.50;;;;;;5029357;28;20391;-72
2022/06/02 09:27:45;;;;;;;2.78;1.15;;;21.60;42.70;;;;;;5013943;28;20042;-73
2022/06/02 09:30:26;;;;;;;2.88;1.50;;;21.70;42.30;;;;;;5013002;28;20018;-76
2022/06/02 09:36:35;;;;;;;2.65;1.00;;;21.70;41.50;;;;;;5003917;28;20115;-76
2022/06/02 09:39:24;;;;;;;5.18;1.60;;;21.70;42.00;;;;;;5013729;28;20050;-76
2022/06/02 09:42:10;;;;;;;3.33;1.20;;;21.70;42.30;;;;;;5028688;28;20029;-76
2022/06/02 09:44:49;;;;;;;7.50;1.40;;;21.50;42.60;;;;;;5029291;28;20495;-75
2022/06/02 09:47:49;;;;;;;4.40;1.23;;;21.50;42.60;;;;;;5029006;28;20103;-74
2022/06/02 09:50:23;;;;;;;3.40;1.65;;;21.60;42.60;;;;;;5011707;28;20026;-74
2022/06/02 09:53:04;;;;;;;1.75;1.02;;;21.80;41.50;;;;;;5029019;28;20164;-74
2022/06/02 09:55:35;;;;;;;2.65;1.52;;;22.00;41.70;;;;;;5028881;28;20042;-73
2022/06/02 09:58:17;;;;;;;5.80;1.58;;;22.10;40.10;;;;;;5028752;28;20091;-74
2022/06/02 10:01:20;;;;;;;3.05;1.00;;;22.10;40.70;;;;;;5028626;28;20026;-75
2022/06/02 10:04:07;;;;;;;8.25;1.33;;;22.00;39.70;;;;;;5013174;28;20017;-75
2022/06/02 10:06:58;;;;;;;5.28;1.30;;;22.00;40.00;;;;;;5013446;28;20022;-72
2022/06/02 10:09:54;;;;;;;2.53;1.20;;;22.00;40.20;;;;;;5013128;28;20041;-72
2022/06/02 10:15:46;;;;;;;2.30;1.40;;;22.60;39.60;;;;;;5012586;28;20568;-72
2022/06/02 10:18:15;;;;;;;0.98;0.88;;;22.80;39.50;;;;;;5027999;28;20490;-73
2022/06/02 10:21:04;;;;;;;5.43;1.30;;;22.80;38.90;;;;;;5012721;28;20048;-76
2022/06/02 10:23:57;;;;;;;1.70;1.00;;;23.00;39.00;;;;;;5012909;28;20022;-75
2022/06/02 10:26:46;;;;;;;2.38;1.30;;;23.30;38.10;;;;;;5013091;28;20030;-76
2022/06/02 10:29:36;;;;;;;6.53;1.55;;;23.40;37.60;;;;;;4992994;28;20076;-72
2022/06/02 10:32:20;;;;;;;2.38;1.23;;;23.20;38.00;;;;;;5012761;28;20017;-75
2022/06/02 10:35:10;;;;;;;7.90;1.17;;;23.30;38.60;;;;;;5012264;28;20025;-75
2022/06/02 10:38:03;;;;;;;1.92;0.90;;;23.50;37.20;;;;;;5012386;28;20364;-77
2022/06/02 10:41:02;;;;;;;4.40;1.00;;;23.70;37.20;;;;;;5012926;28;20068;-77
2022/06/02 10:43:32;;;;;;;2.75;1.20;;;24.00;36.70;;;;;;5012728;28;20435;-76
2022/06/02 10:46:35;;;;;;;3.22;1.60;;;24.30;36.20;;;;;;5027756;28;20474;-77
2022/06/02 10:49:26;;;;;;;1.90;1.27;;;24.50;35.40;;;;;;5012406;28;20036;-77
2022/06/02 10:52:14;;;;;;;2.30;1.25;;;24.60;35.70;;;;;;5009929;28;20118;-76
2022/06/02 10:55:17;;;;;;;3.08;1.30;;;24.70;34.40;;;;;;5012080;28;20048;-76
2022/06/02 10:57:45;;;;;;;2.45;1.30;;;24.60;34.20;;;;;;5012522;28;20026;-75
2022/06/02 11:00:32;;;;;;;3.60;1.40;;;24.30;35.20;;;;;;5012279;28;20108;-77
2022/06/02 11:03:26;;;;;;;2.88;1.40;;;24.20;35.90;;;;;;5027421;28;20026;-74
2022/06/02 11:06:21;;;;;;;3.55;1.10;;;24.00;35.40;;;;;;5012029;28;20137;-73
2022/06/02 11:09:05;;;;;;;1.45;0.80;;;23.80;36.30;;;;;;5012499;28;20022;-74
2022/06/02 11:11:48;;;;;;;3.50;1.00;;;23.70;36.00;;;;;;5012392;28;20478;-78
2022/06/02 11:14:28;;;;;;;4.15;1.20;;;23.80;35.80;;;;;;5012537;28;20022;-76
2022/06/02 11:17:35;;;;;;;2.92;1.20;;;23.70;36.30;;;;;;5012508;28;20485;-77
2022/06/02 11:20:29;;;;;;;1.83;0.95;;;23.70;36.70;;;;;;5012449;28;20029;-74
2022/06/02 11:23:25;;;;;;;1.92;1.17;;;23.60;36.50;;;;;;5012589;28;20105;-74
2022/06/02 11:26:22;;;;;;;2.50;1.45;;;23.70;37.30;;;;;;5012521;28;20069;-75
2022/06/02 11:29:25;;;;;;;2.85;1.15;;;23.80;36.10;;;;;;5012537;28;20029;-74
2022/06/02 11:31:57;;;;;;;1.63;1.20;;;23.90;36.60;;;;;;5012453;28;20038;-74
2022/06/02 11:35:05;;;;;;;1.58;1.00;;;23.80;35.60;;;;;;5012527;28;20382;-74
2022/06/02 11:37:57;;;;;;;2.17;1.10;;;23.70;35.40;;;;;;5012277;28;20129;-76
2022/06/02 11:40:41;;;;;;;5.80;1.23;;;23.70;36.60;;;;;;5013869;28;20018;-79
2022/06/02 11:43:16;;;;;;;2.50;1.30;;;23.80;37.00;;;;;;5016008;28;20030;-78
2022/06/02 11:46:04;;;;;;;1.80;1.17;;;24.00;36.80;;;;;;5015615;28;20022;-74
2022/06/02 11:48:58;;;;;;;3.45;1.10;;;24.20;36.00;;;;;;5015757;28;20032;-74
2022/06/02 11:51:51;;;;;;;2.85;1.35;;;24.40;35.50;;;;;;5016079;28;20546;-74
2022/06/02 11:54:36;;;;;;;3.85;1.20;;;24.80;35.60;;;;;;5015872;28;20029;-76
2022/06/02 11:57:19;;;;;;;4.70;1.27;;;25.00;35.10;;;;;;5015904;28;20025;-74
2022/06/02 12:00:07;;;;;;;8.80;2.20;;;25.10;35.10;;;;;;5015881;28;20105;-77
2022/06/02 12:03:06;;;;;;;2.28;1.10;;;25.40;34.30;;;;;;5015969;28;20100;-74
2022/06/02 12:05:56;;;;;;;2.53;1.27;;;25.40;33.90;;;;;;5015616;28;20018;-75
2022/06/02 12:08:40;;;;;;;1.50;0.93;;;25.40;33.90;;;;;;5015753;28;20033;-75
2022/06/02 12:11:26;;;;;;;3.78;1.27;;;25.20;33.30;;;;;;5015552;28;20037;-74
2022/06/02 12:14:22;;;;;;;4.75;1.17;;;25.10;34.40;;;;;;5015502;28;20054;-74
2022/06/02 12:17:05;;;;;;;3.88;1.27;;;24.80;34.80;;;;;;5015471;28;20034;-76
2022/06/02 12:19:54;;;;;;;6.13;1.13;;;24.60;35.40;;;;;;5015602;28;20034;-74
2022/06/02 12:22:41;;;;;;;1.95;1.10;;;24.40;36.10;;;;;;5015604;28;20498;-73
2022/06/02 12:25:25;;;;;;;2.63;1.42;;;24.50;36.40;;;;;;5030566;28;20054;-74
2022/06/02 12:28:04;;;;;;;3.13;1.13;;;24.50;36.50;;;;;;5015523;28;20054;-74
2022/06/02 12:30:44;;;;;;;4.57;1.50;;;24.50;36.40;;;;;;5015116;28;20478;-74
2022/06/02 12:33:40;;;;;;;2.33;1.10;;;24.50;35.90;;;;;;5015271;28;20033;-77
2022/06/02 12:36:20;;;;;;;2.42;0.88;;;24.40;36.10;;;;;;5014986;28;20510;-75
2022/06/02 12:39:19;;;;;;;1.83;1.30;;;24.20;36.10;;;;;;5015036;28;20049;-73
2022/06/02 12:42:06;;;;;;;3.50;1.10;;;23.90;35.90;;;;;;5015290;28;20037;-74
2022/06/02 12:45:09;;;;;;;2.30;1.20;;;23.70;36.50;;;;;;5030203;28;20438;-74
2022/06/02 12:47:37;;;;;;;4.53;1.52;;;23.40;36.90;;;;;;5030016;28;20438;-75
2022/06/02 12:50:22;;;;;;;0.85;0.80;;;23.20;37.40;;;;;;5015174;28;20030;-74
2022/06/02 12:53:10;;;;;;;4.60;1.45;;;23.00;37.90;;;;;;5014911;28;20383;-74
2022/06/02 12:56:02;;;;;;;2.17;1.13;;;22.80;38.50;;;;;;5014698;28;20029;-73
2022/06/02 12:58:47;;;;;;;1.27;1.00;;;22.70;39.50;;;;;;5014260;28;20030;-75
2022/06/02 13:01:46;;;;;;;0.95;0.85;;;22.50;40.10;;;;;;5014655;28;20072;-76
2022/06/02 13:04:39;;;;;;;2.38;1.50;;;22.40;40.70;;;;;;5014642;28;20108;-74
2022/06/02 13:07:45;;;;;;;4.45;1.10;;;22.40;40.60;;;;;;5014636;28;20030;-73
2022/06/02 13:10:41;;;;;;;2.58;1.17;;;22.30;40.80;;;;;;5014460;28;20050;-74
2022/06/02 13:13:18;;;;;;;9.48;5.65;;;22.20;41.30;;;;;;5014771;28;20041;-75
2022/06/02 13:16:17;;;;;;;5.72;3.95;;;22.20;42.20;;;;;;5014504;28;20037;-75
2022/06/02 13:19:10;;;;;;;4.55;2.13;;;22.20;43.00;;;;;;5029603;28;20024;-75
2022/06/02 13:21:44;;;;;;;3.25;1.48;;;22.20;43.40;;;;;;5014438;28;20455;-74
2022/06/02 13:24:25;;;;;;;3.33;1.30;;;22.20;43.50;;;;;;5014283;28;20076;-73
2022/06/02 13:26:50;;;;;;;1.98;1.50;;;22.20;44.10;;;;;;5013843;28;20045;-76
2022/06/02 13:29:34;;;;;;;1.90;1.30;;;22.20;43.90;;;;;;5029068;28;20103;-75
2022/06/02 13:32:15;;;;;;;1.65;1.30;;;22.10;44.10;;;;;;5014075;28;20072;-75
2022/06/02 13:35:18;;;;;;;2.88;1.55;;;22.00;44.60;;;;;;5013654;28;20541;-74
2022/06/02 13:38:05;;;;;;;2.30;1.60;;;22.10;44.70;;;;;;5013475;28;20046;-74
2022/06/02 13:40:45;;;;;;;4.00;2.63;;;22.10;45.30;;;;;;5013497;28;20378;-74
2022/06/02 13:43:22;;;;;;;4.03;2.78;;;22.20;48.10;;;;;;5013678;28;20028;-76
2022/06/02 13:45:53;;;;;;;3.55;1.75;;;22.20;48.90;;;;;;5028477;28;20037;-74
2022/06/02 13:49:08;;;;;;;2.83;1.42;;;22.20;49.40;;;;;;5012385;28;20037;-74
2022/06/02 13:51:54;;;;;;;2.42;1.50;;;22.00;51.90;;;;;;5013836;28;20030;-76
2022/06/02 13:57:55;;;;;;;3.85;1.45;;;21.70;54.80;;;;;;5013539;28;20145;-74
2022/06/02 14:00:48;;;;;;;3.20;1.15;;;21.60;54.70;;;;;;5013740;28;20018;-75
2022/06/02 14:03:51;;;;;;;4.20;1.55;;;21.40;52.60;;;;;;5011842;28;20021;-73
2022/06/02 14:06:20;;;;;;;3.65;1.20;;;21.20;54.90;;;;;;5009646;28;20375;-72
2022/06/02 14:09:24;;;;;;;4.60;2.33;;;21.10;56.50;;;;;;5012152;28;20096;-74
2022/06/02 14:12:14;;;;;;;8.30;1.73;;;20.90;58.00;;;;;;5013305;28;20014;-75
2022/06/02 14:15:22;;;;;;;4.80;1.50;;;20.80;59.30;;;;;;5013321;28;20490;-74
2022/06/02 14:18:09;;;;;;;3.70;1.70;;;20.80;63.40;;;;;;5013355;28;20455;-75
2022/06/02 14:21:08;;;;;;;6.60;2.10;;;20.90;63.90;;;;;;5011671;28;20057;-74
2022/06/02 14:24:01;;;;;;;2.65;1.65;;;21.00;64.20;;;;;;5011741;28;20050;-74
2022/06/02 14:26:41;;;;;;;3.38;1.67;;;21.10;65.00;;;;;;5013033;28;20415;-72
2022/06/02 14:29:33;;;;;;;2.55;1.35;;;21.30;65.50;;;;;;5012667;28;20368;-75
2022/06/02 14:32:05;;;;;;;4.68;1.85;;;21.40;65.40;;;;;;5012908;28;20100;-75
2022/06/02 14:34:48;;;;;;;3.85;1.85;;;21.70;66.30;;;;;;5012147;28;20053;-78
2022/06/02 14:37:22;;;;;;;4.72;1.77;;;21.80;67.20;;;;;;5009705;28;20375;-76
2022/06/02 14:39:50;;;;;;;3.17;1.60;;;22.10;66.20;;;;;;5011496;28;20037;-76